PRG weather

Václav Havel Airport Prague
Prague, Prague (capital city), Czechia

Public forecast

Using degrees Celsius for public forecast. Weather courtesy of forecast.io.

METAR (pilot weather report)

Retrieved 2017/06/27 03:00 UTC (1 minute ago):

LKPR 270300Z VRB02KT CAVOK 13/10 Q1013 NOSIG

TAF (pilot weather forecast)

Forecast is more than 12 hours old.

Retrieved 2017/06/26 12:12 UTC (15 hours ago):

TAF LKPR 261100Z 2612/2718 26014KT CAVOK BECMG 2612/2615 33010KT BECMG 2616/2618 03006KT BECMG 2708/2710 07010KT PROB30 TEMPO 2716/2718 7000 TSRA SCT045CB